createdAt,value
2022-09-25T00:01:38.366Z,18.50
2022-09-25T00:04:05.621Z,18.40
2022-09-25T00:06:35.734Z,18.40
2022-09-25T00:09:03.080Z,18.40
2022-09-25T00:11:31.593Z,18.40
2022-09-25T00:13:59.746Z,18.40
2022-09-25T00:16:29.152Z,18.40
2022-09-25T00:19:15.186Z,18.40
2022-09-25T00:21:42.549Z,18.40
2022-09-25T00:24:10.650Z,18.40
2022-09-25T00:26:39.379Z,18.40
2022-09-25T00:29:26.731Z,18.40
2022-09-25T00:31:54.909Z,18.40
2022-09-25T00:34:22.025Z,18.40
2022-09-25T00:36:49.081Z,18.40
2022-09-25T00:39:16.149Z,18.40
2022-09-25T00:41:43.286Z,18.40
2022-09-25T00:44:29.149Z,18.40
2022-09-25T00:46:57.164Z,18.40
2022-09-25T00:49:25.984Z,18.30
2022-09-25T00:52:05.076Z,18.40
2022-09-25T00:54:34.697Z,18.30
2022-09-25T00:57:03.973Z,18.30
2022-09-25T00:59:33.187Z,18.40
2022-09-25T01:02:00.496Z,18.30
2022-09-25T01:04:29.659Z,18.30
2022-09-25T01:06:57.406Z,18.30
2022-09-25T01:09:24.561Z,18.40
2022-09-25T01:11:51.668Z,18.30
2022-09-25T01:14:18.736Z,18.30
2022-09-25T01:16:53.136Z,18.30
2022-09-25T01:19:38.418Z,18.30
2022-09-25T01:22:11.509Z,18.30
2022-09-25T01:24:57.514Z,18.30
2022-09-25T01:27:32.998Z,18.40
2022-09-25T01:30:08.740Z,18.30
2022-09-25T01:32:39.342Z,18.30
2022-09-25T01:35:09.586Z,18.30
2022-09-25T01:37:36.642Z,18.30
2022-09-25T01:40:14.370Z,18.30
2022-09-25T01:43:07.871Z,18.30
2022-09-25T01:45:55.251Z,18.20
2022-09-25T01:48:25.086Z,18.30
2022-09-25T01:51:00.891Z,18.30
2022-09-25T01:53:32.555Z,18.30
2022-09-25T01:56:05.966Z,18.30
2022-09-25T01:58:46.187Z,18.30
2022-09-25T02:01:20.415Z,18.30
2022-09-25T02:03:52.126Z,18.30
2022-09-25T02:06:20.948Z,18.20
2022-09-25T02:08:52.417Z,18.30
2022-09-25T02:11:19.927Z,18.20
2022-09-25T02:13:49.602Z,18.20
2022-09-25T02:16:24.910Z,18.20
2022-09-25T02:19:10.635Z,18.20
2022-09-25T02:21:40.512Z,18.20
2022-09-25T02:24:20.800Z,18.20
2022-09-25T02:26:48.369Z,18.20
2022-09-25T02:29:15.812Z,18.20
2022-09-25T02:31:48.872Z,18.20
2022-09-25T02:34:16.301Z,18.20
2022-09-25T02:36:44.751Z,18.20
2022-09-25T02:39:13.984Z,18.20
2022-09-25T02:41:53.307Z,18.20
2022-09-25T02:44:39.206Z,18.20
2022-09-25T02:47:06.208Z,18.20
2022-09-25T02:49:40.243Z,18.20
2022-09-25T02:52:17.781Z,18.20
2022-09-25T02:54:53.851Z,18.20
2022-09-25T02:57:29.549Z,18.20
2022-09-25T02:59:59.448Z,18.10
2022-09-25T03:02:27.979Z,18.10
2022-09-25T03:04:55.958Z,18.20
2022-09-25T03:07:23.364Z,18.20
2022-09-25T03:09:52.068Z,18.10
2022-09-25T03:12:19.150Z,18.10
2022-09-25T03:14:46.770Z,18.10
2022-09-25T03:17:15.110Z,18.10
2022-09-25T03:19:42.143Z,18.10
2022-09-25T03:22:09.278Z,18.10
2022-09-25T03:24:38.257Z,18.10
2022-09-25T03:27:05.372Z,18.10
2022-09-25T03:29:32.687Z,18.10
2022-09-25T03:31:59.751Z,18.10
2022-09-25T03:34:26.830Z,18.10
2022-09-25T03:36:53.901Z,18.10
2022-09-25T03:39:20.971Z,18.10
2022-09-25T03:41:48.286Z,18.00
2022-09-25T03:44:15.585Z,18.10
2022-09-25T03:46:42.725Z,18.10
2022-09-25T03:49:10.699Z,18.00
2022-09-25T03:51:38.889Z,18.00
2022-09-25T03:54:06.121Z,18.00
2022-09-25T03:56:33.721Z,18.00
2022-09-25T03:59:00.880Z,18.00
2022-09-25T04:01:28.543Z,18.00
2022-09-25T04:03:55.854Z,18.00
2022-09-25T04:06:24.340Z,18.00
2022-09-25T04:08:52.010Z,18.00
2022-09-25T04:11:20.077Z,18.00
2022-09-25T04:13:47.160Z,18.00
2022-09-25T04:16:15.973Z,18.00
2022-09-25T04:18:43.352Z,17.90
2022-09-25T04:21:11.519Z,18.00
2022-09-25T04:23:38.938Z,18.00
2022-09-25T04:26:06.578Z,18.00
2022-09-25T04:28:34.191Z,18.00
2022-09-25T04:31:02.121Z,17.90
2022-09-25T04:33:47.952Z,18.00
2022-09-25T04:36:16.276Z,18.00
2022-09-25T04:38:44.064Z,17.90
2022-09-25T04:41:11.748Z,17.90
2022-09-25T04:43:40.880Z,17.90
2022-09-25T04:46:08.874Z,17.90
2022-09-25T04:48:36.599Z,17.90
2022-09-25T04:51:04.341Z,17.90
2022-09-25T04:53:32.281Z,17.90
2022-09-25T04:56:03.170Z,17.90
2022-09-25T04:58:30.308Z,17.90
2022-09-25T05:01:01.640Z,17.90
2022-09-25T05:03:30.040Z,17.90
2022-09-25T05:05:57.223Z,17.90
2022-09-25T05:08:24.467Z,17.90
2022-09-25T05:10:51.585Z,17.90
2022-09-25T05:13:18.717Z,17.90
2022-09-25T05:15:45.896Z,17.90
2022-09-25T05:18:17.741Z,17.90
2022-09-25T05:20:45.249Z,17.90
2022-09-25T05:23:12.586Z,17.90
2022-09-25T05:25:39.744Z,18.00
2022-09-25T05:28:06.951Z,17.90
2022-09-25T05:30:35.117Z,17.90
2022-09-25T05:33:02.245Z,17.90
2022-09-25T05:35:30.588Z,18.00
2022-09-25T05:37:57.745Z,18.00
2022-09-25T05:40:25.217Z,18.00
2022-09-25T05:42:52.984Z,18.00
2022-09-25T05:45:20.829Z,18.00
2022-09-25T05:47:48.140Z,18.00
2022-09-25T05:50:16.455Z,18.00
2022-09-25T05:52:44.529Z,18.00
2022-09-25T05:55:11.677Z,18.10
2022-09-25T05:57:38.785Z,18.10
2022-09-25T06:00:08.100Z,18.20
2022-09-25T06:02:41.277Z,18.20
2022-09-25T06:05:09.663Z,18.30
2022-09-25T06:07:36.903Z,18.40
2022-09-25T06:10:04.169Z,18.40
2022-09-25T06:12:31.696Z,18.50
2022-09-25T06:14:58.800Z,18.50
2022-09-25T06:17:25.924Z,18.60
2022-09-25T06:19:53.034Z,18.70
2022-09-25T06:22:20.151Z,18.90
2022-09-25T06:24:48.745Z,19.00
2022-09-25T06:27:15.910Z,19.00
2022-09-25T06:29:43.014Z,18.90
2022-09-25T06:32:10.185Z,18.90
2022-09-25T06:34:37.389Z,18.90
2022-09-25T06:37:04.455Z,18.80
2022-09-25T06:39:33.300Z,18.80
2022-09-25T06:42:00.376Z,18.80
2022-09-25T06:44:28.272Z,18.90
2022-09-25T06:46:55.410Z,19.00
2022-09-25T06:49:22.593Z,19.10
2022-09-25T06:51:51.247Z,19.30
2022-09-25T06:54:18.323Z,19.30
2022-09-25T06:56:48.763Z,19.50
2022-09-25T06:59:16.131Z,20.10
2022-09-25T07:01:43.235Z,19.80
2022-09-25T07:04:10.494Z,20.00
2022-09-25T07:06:37.901Z,21.10
2022-09-25T07:09:05.267Z,20.70
2022-09-25T07:11:32.410Z,20.40
2022-09-25T07:13:59.473Z,21.00
2022-09-25T07:16:27.831Z,23.20
2022-09-25T07:18:57.169Z,23.70
2022-09-25T07:21:25.132Z,23.50
2022-09-25T07:23:52.677Z,22.80
2022-09-25T07:26:22.350Z,21.60
2022-09-25T07:28:54.856Z,20.90
2022-09-25T07:31:23.351Z,20.40
2022-09-25T07:33:50.598Z,20.30
2022-09-25T07:36:18.157Z,20.30
2022-09-25T07:38:49.869Z,20.40
2022-09-25T07:41:18.535Z,20.50
2022-09-25T07:43:45.656Z,22.30
2022-09-25T07:46:13.169Z,25.30
2022-09-25T07:48:40.340Z,26.50
2022-09-25T07:51:08.445Z,27.50
2022-09-25T07:53:35.526Z,28.00
2022-09-25T07:56:06.564Z,26.20
2022-09-25T07:58:35.436Z,25.10
2022-09-25T08:01:04.123Z,23.90
2022-09-25T08:03:31.576Z,22.50
2022-09-25T08:05:59.114Z,21.60
2022-09-25T08:08:27.270Z,21.20
2022-09-25T08:10:56.013Z,21.00
2022-09-25T08:13:23.160Z,21.00
2022-09-25T08:15:50.425Z,20.80
2022-09-25T08:18:17.608Z,20.80
2022-09-25T08:20:44.753Z,20.90
2022-09-25T08:23:11.898Z,21.00
2022-09-25T08:25:38.941Z,20.70
2022-09-25T08:28:06.378Z,20.60
2022-09-25T08:30:33.462Z,20.30
2022-09-25T08:33:00.596Z,20.50
2022-09-25T08:35:28.039Z,20.60
2022-09-25T08:37:57.253Z,20.60
2022-09-25T08:40:26.908Z,20.60
2022-09-25T08:45:09.026Z,19.80
2022-09-25T08:47:55.034Z,19.70
2022-09-25T08:50:24.491Z,19.40
2022-09-25T08:54:22.653Z,19.50
2022-09-25T08:56:53.757Z,19.30
2022-09-25T09:07:27.473Z,19.40
2022-09-25T09:10:07.903Z,19.60
2022-09-25T09:12:38.030Z,19.70
2022-09-25T09:15:24.804Z,19.90
2022-09-25T09:17:53.766Z,20.50
2022-09-25T09:20:30.017Z,20.50
2022-09-25T09:22:58.744Z,20.90
2022-09-25T09:25:31.006Z,20.90
2022-09-25T09:28:07.090Z,21.90
2022-09-25T09:30:56.396Z,21.90
2022-09-25T09:33:42.104Z,20.70
2022-09-25T09:36:09.436Z,20.40
2022-09-25T09:39:14.570Z,21.00
2022-09-25T09:41:55.563Z,21.90
2022-09-25T09:44:44.140Z,22.10
2022-09-25T09:47:11.314Z,21.30
2022-09-25T09:49:47.063Z,21.10
2022-09-25T09:52:36.121Z,21.10
2022-09-25T09:55:19.966Z,21.30
2022-09-25T09:57:52.348Z,23.70
2022-09-25T10:00:22.857Z,22.90
2022-09-25T10:02:59.565Z,22.20
2022-09-25T10:05:39.321Z,23.00
2022-09-25T10:08:06.632Z,22.40
2022-09-25T10:10:40.189Z,21.70
2022-09-25T10:13:32.848Z,21.20
2022-09-25T10:16:03.477Z,21.00
2022-09-25T10:18:37.419Z,21.00
2022-09-25T10:21:12.612Z,20.70
2022-09-25T10:23:41.434Z,20.70
2022-09-25T10:26:29.515Z,20.90
2022-09-25T10:28:59.184Z,20.90
2022-09-25T10:31:38.870Z,21.10
2022-09-25T10:34:13.146Z,21.30
2022-09-25T10:36:46.489Z,21.50
2022-09-25T10:39:44.175Z,21.20
2022-09-25T10:42:34.479Z,21.00
2022-09-25T10:45:26.590Z,21.20
2022-09-25T10:48:12.511Z,21.60
2022-09-25T10:50:39.721Z,21.60
2022-09-25T10:53:31.210Z,23.60
2022-09-25T10:56:31.197Z,23.80
2022-09-25T10:59:01.843Z,23.20
2022-09-25T11:01:37.420Z,23.90
2022-09-25T11:04:29.328Z,23.60
2022-09-25T11:07:00.382Z,23.80
2022-09-25T11:09:29.872Z,22.80
2022-09-25T11:12:31.184Z,22.60
2022-09-25T11:15:05.733Z,22.30
2022-09-25T11:17:38.004Z,22.30
2022-09-25T11:20:32.014Z,22.10
2022-09-25T11:23:28.348Z,22.00
2022-09-25T11:26:16.167Z,21.70
2022-09-25T11:28:52.730Z,21.80
2022-09-25T11:31:33.541Z,21.40
2022-09-25T11:34:03.960Z,21.40
2022-09-25T11:36:43.363Z,21.60
2022-09-25T11:39:38.391Z,21.70
2022-09-25T11:42:14.372Z,21.70
2022-09-25T11:45:00.799Z,21.40
2022-09-25T11:47:58.669Z,21.50
2022-09-25T11:50:44.347Z,21.50
2022-09-25T11:53:26.643Z,21.80
2022-09-25T11:56:15.376Z,21.80
2022-09-25T11:58:55.769Z,21.40
2022-09-25T12:01:34.350Z,21.30
2022-09-25T12:04:16.495Z,21.20
2022-09-25T12:07:05.932Z,21.30
2022-09-25T12:09:33.214Z,21.00
2022-09-25T12:12:18.303Z,21.20
2022-09-25T12:15:00.362Z,21.10
2022-09-25T12:17:34.317Z,21.40
2022-09-25T12:20:30.502Z,21.20
2022-09-25T12:23:30.353Z,21.00
2022-09-25T12:26:22.247Z,20.80
2022-09-25T12:29:29.010Z,20.80
2022-09-25T12:31:59.382Z,21.00
2022-09-25T12:34:57.705Z,21.00
2022-09-25T12:37:47.660Z,20.80
2022-09-25T12:40:47.320Z,20.80
2022-09-25T12:43:18.832Z,20.70
2022-09-25T12:45:51.015Z,20.90
2022-09-25T12:48:31.494Z,21.00
2022-09-25T12:51:21.742Z,21.20
2022-09-25T12:54:01.226Z,21.00
2022-09-25T12:56:44.962Z,21.20
2022-09-25T12:59:23.995Z,21.20
2022-09-25T13:02:13.827Z,21.20
2022-09-25T13:05:21.707Z,21.50
2022-09-25T13:08:03.169Z,21.50
2022-09-25T13:10:50.625Z,22.60
2022-09-25T13:13:30.347Z,23.10
2022-09-25T13:15:59.960Z,23.40
2022-09-25T13:18:29.976Z,23.50
2022-09-25T13:21:00.915Z,23.50
2022-09-25T13:23:35.611Z,23.50
2022-09-25T13:26:14.444Z,23.50
2022-09-25T13:28:51.085Z,23.40
2022-09-25T13:31:27.350Z,23.40
2022-09-25T13:34:06.105Z,23.30
2022-09-25T13:36:39.312Z,23.20
2022-09-25T13:40:08.517Z,23.10
2022-09-25T13:42:39.996Z,23.20
2022-09-25T13:45:26.065Z,23.20
2022-09-25T13:48:12.703Z,23.40
2022-09-25T13:50:47.969Z,23.50
2022-09-25T13:53:21.021Z,23.50
2022-09-25T13:55:48.250Z,23.50
2022-09-25T13:58:19.823Z,23.50
2022-09-25T14:00:50.444Z,23.40
2022-09-25T14:03:44.045Z,23.30
2022-09-25T14:06:23.456Z,23.30
2022-09-25T14:08:53.339Z,23.40
2022-09-25T14:11:27.051Z,23.50
2022-09-25T14:13:56.793Z,23.50
2022-09-25T14:16:38.034Z,23.40
2022-09-25T14:19:08.312Z,23.30
2022-09-25T14:21:36.016Z,23.30
2022-09-25T14:24:20.188Z,23.20
2022-09-25T14:26:48.788Z,23.10
2022-09-25T14:29:19.074Z,23.10
2022-09-25T14:31:53.396Z,23.10
2022-09-25T14:34:26.238Z,23.10
2022-09-25T14:37:11.280Z,23.10
2022-09-25T14:39:57.668Z,23.10
2022-09-25T14:42:54.085Z,23.10
2022-09-25T14:45:42.881Z,23.00
2022-09-25T14:48:15.687Z,23.00
2022-09-25T14:50:52.757Z,23.00
2022-09-25T14:53:29.864Z,23.00
2022-09-25T14:55:58.341Z,23.00
2022-09-25T14:58:30.070Z,23.00
2022-09-25T15:01:10.535Z,23.00
2022-09-25T15:03:43.835Z,22.90
2022-09-25T15:06:16.054Z,22.90
2022-09-25T15:08:43.614Z,22.90
2022-09-25T15:11:19.242Z,22.90
2022-09-25T15:13:46.696Z,22.80
2022-09-25T15:16:39.462Z,22.70
2022-09-25T15:19:20.539Z,22.70
2022-09-25T15:21:50.835Z,22.60
2022-09-25T15:24:27.581Z,22.60
2022-09-25T15:27:06.260Z,22.50
2022-09-25T15:29:38.142Z,22.50
2022-09-25T15:32:05.856Z,22.50
2022-09-25T15:34:33.552Z,22.50
2022-09-25T15:37:27.688Z,22.50
2022-09-25T15:39:56.427Z,22.50
2022-09-25T15:42:23.755Z,22.50
2022-09-25T15:44:51.014Z,22.50
2022-09-25T15:47:36.737Z,22.40
2022-09-25T15:50:13.468Z,22.40
2022-09-25T15:52:40.814Z,22.30
2022-09-25T15:55:16.390Z,22.30
2022-09-25T15:57:44.413Z,22.30
2022-09-25T16:00:56.806Z,22.20
2022-09-25T16:03:43.678Z,22.10
2022-09-25T16:06:17.557Z,22.10
2022-09-25T16:08:44.954Z,22.00
2022-09-25T16:11:22.774Z,22.00
2022-09-25T16:13:53.251Z,21.90
2022-09-25T16:16:30.168Z,21.90
2022-09-25T16:19:21.573Z,21.90
2022-09-25T16:21:49.281Z,21.90
2022-09-25T16:24:23.003Z,21.80
2022-09-25T16:27:04.658Z,21.80
2022-09-25T16:29:37.262Z,21.80
2022-09-25T16:32:08.345Z,21.80
2022-09-25T16:34:38.931Z,21.70
2022-09-25T16:37:18.660Z,21.70
2022-09-25T16:39:45.959Z,21.70
2022-09-25T16:42:26.654Z,21.60
2022-09-25T16:45:04.203Z,21.60
2022-09-25T16:47:31.887Z,21.50
2022-09-25T16:49:59.082Z,21.50
2022-09-25T16:52:30.140Z,21.60
2022-09-25T16:54:57.408Z,21.60
2022-09-25T16:57:27.844Z,21.70
2022-09-25T16:59:55.347Z,21.70
2022-09-25T17:02:41.715Z,21.80
2022-09-25T17:05:17.582Z,21.80
2022-09-25T17:07:52.613Z,21.90
2022-09-25T17:10:26.137Z,21.90
2022-09-25T17:12:55.667Z,21.90
2022-09-25T17:15:33.023Z,22.00
2022-09-25T17:18:02.037Z,21.90
2022-09-25T17:20:35.199Z,21.90
2022-09-25T17:23:02.438Z,21.90
2022-09-25T17:25:40.605Z,21.90
2022-09-25T17:28:10.354Z,21.90
2022-09-25T17:30:39.038Z,21.90
2022-09-25T17:33:06.827Z,21.90
2022-09-25T17:35:37.913Z,21.90
2022-09-25T17:38:06.004Z,21.90
2022-09-25T17:40:33.683Z,21.90
2022-09-25T17:43:01.356Z,21.90
2022-09-25T17:45:43.145Z,21.80
2022-09-25T17:48:11.999Z,21.80
2022-09-25T17:50:39.635Z,21.80
2022-09-25T17:53:19.754Z,21.80
2022-09-25T17:55:52.571Z,21.80
2022-09-25T17:58:19.967Z,21.80
2022-09-25T18:00:47.735Z,21.80
2022-09-25T18:03:15.964Z,21.70
2022-09-25T18:05:44.040Z,21.70
2022-09-25T18:08:12.511Z,21.70
2022-09-25T18:10:40.978Z,21.80
2022-09-25T18:13:13.321Z,21.60
2022-09-25T18:15:53.177Z,21.50
2022-09-25T18:18:20.829Z,21.40
2022-09-25T18:21:09.454Z,21.30
2022-09-25T18:23:38.911Z,21.20
2022-09-25T18:26:08.533Z,21.20
2022-09-25T18:28:35.855Z,21.20
2022-09-25T18:31:03.390Z,21.20
2022-09-25T18:33:31.132Z,21.20
2022-09-25T18:35:58.497Z,21.10
2022-09-25T18:38:25.751Z,21.10
2022-09-25T18:40:53.156Z,21.10
2022-09-25T18:43:21.113Z,21.00
2022-09-25T18:45:51.465Z,21.00
2022-09-25T18:48:18.699Z,21.00
2022-09-25T18:50:47.139Z,20.90
2022-09-25T18:53:15.384Z,20.90
2022-09-25T18:55:43.654Z,20.80
2022-09-25T18:58:11.774Z,20.80
2022-09-25T19:00:39.968Z,20.80
2022-09-25T19:03:07.459Z,20.80
2022-09-25T19:05:34.868Z,20.80
2022-09-25T19:08:03.432Z,20.70
2022-09-25T19:10:34.581Z,20.80
2022-09-25T19:13:01.892Z,20.80
2022-09-25T19:15:29.443Z,20.80
2022-09-25T19:17:59.994Z,20.80
2022-09-25T19:20:27.230Z,20.80
2022-09-25T19:22:55.102Z,20.80
2022-09-25T19:25:22.918Z,20.80
2022-09-25T19:27:50.459Z,20.80
2022-09-25T19:30:17.748Z,20.80
2022-09-25T19:32:45.056Z,20.80
2022-09-25T19:35:13.225Z,20.70
2022-09-25T19:37:42.059Z,20.70
2022-09-25T19:40:28.401Z,20.70
2022-09-25T19:42:55.948Z,20.70
2022-09-25T19:45:23.307Z,20.70
2022-09-25T19:47:50.777Z,20.70
2022-09-25T19:50:18.874Z,20.70
2022-09-25T19:52:50.750Z,20.70
2022-09-25T19:55:18.434Z,20.70
2022-09-25T19:57:46.349Z,20.70
2022-09-25T20:00:17.192Z,20.70
2022-09-25T20:02:46.652Z,20.70
2022-09-25T20:05:14.543Z,20.70
2022-09-25T20:07:41.783Z,20.70
2022-09-25T20:10:09.288Z,20.70
2022-09-25T20:12:36.496Z,20.60
2022-09-25T20:15:04.192Z,20.60
2022-09-25T20:17:31.501Z,20.60
2022-09-25T20:19:58.853Z,20.60
2022-09-25T20:22:26.100Z,20.60
2022-09-25T20:24:53.306Z,20.60
2022-09-25T20:27:23.323Z,20.60
2022-09-25T20:29:50.890Z,20.50
2022-09-25T20:32:18.796Z,20.50
2022-09-25T20:34:46.140Z,20.50
2022-09-25T20:37:13.355Z,20.50
2022-09-25T20:39:40.631Z,20.50
2022-09-25T20:42:07.906Z,20.50
2022-09-25T20:44:35.215Z,20.50
2022-09-25T20:47:02.485Z,20.60
2022-09-25T20:49:30.229Z,20.70
2022-09-25T20:51:57.527Z,20.80
2022-09-25T20:54:25.601Z,20.80
2022-09-25T20:56:52.919Z,20.60
2022-09-25T20:59:20.989Z,20.60
2022-09-25T21:01:48.925Z,20.50
2022-09-25T21:04:18.199Z,20.50
2022-09-25T21:06:45.730Z,20.50
2022-09-25T21:09:22.039Z,20.40
2022-09-25T21:11:49.681Z,20.40
2022-09-25T21:14:19.881Z,20.40
2022-09-25T21:16:48.526Z,20.40
2022-09-25T21:19:17.758Z,20.40
2022-09-25T21:21:45.455Z,20.40
2022-09-25T21:24:18.167Z,20.40
2022-09-25T21:26:45.787Z,20.30
2022-09-25T21:29:15.732Z,20.30
2022-09-25T21:31:49.023Z,20.30
2022-09-25T21:34:18.339Z,20.30
2022-09-25T21:36:46.227Z,20.30
2022-09-25T21:39:14.087Z,20.30
2022-09-25T21:41:41.471Z,20.30
2022-09-25T21:44:13.164Z,20.30
2022-09-25T21:46:40.961Z,20.30
2022-09-25T21:49:08.928Z,20.30
2022-09-25T21:51:45.621Z,20.20
2022-09-25T21:54:14.391Z,20.30
2022-09-25T21:56:42.273Z,20.20
2022-09-25T21:59:09.920Z,20.20
2022-09-25T22:01:39.554Z,20.20
2022-09-25T22:04:10.265Z,20.20
2022-09-25T22:06:47.817Z,20.20
2022-09-25T22:09:19.084Z,20.20
2022-09-25T22:11:47.786Z,20.20
2022-09-25T22:14:16.652Z,20.20
2022-09-25T22:16:46.588Z,20.20
2022-09-25T22:19:19.949Z,20.20
2022-09-25T22:21:48.848Z,20.20
2022-09-25T22:24:16.783Z,20.20
2022-09-25T22:26:46.003Z,20.20
2022-09-25T22:29:14.534Z,20.20
2022-09-25T22:31:43.387Z,20.20
2022-09-25T22:34:29.464Z,20.20
2022-09-25T22:36:59.790Z,20.20
2022-09-25T22:39:29.101Z,20.20
2022-09-25T22:41:56.599Z,20.20
2022-09-25T22:44:24.229Z,20.20
2022-09-25T22:46:51.460Z,20.20
2022-09-25T22:49:18.708Z,20.20
2022-09-25T22:51:46.012Z,20.20
2022-09-25T22:54:14.665Z,20.20
2022-09-25T22:56:42.511Z,20.20
2022-09-25T22:59:12.867Z,20.10
2022-09-25T23:01:47.004Z,20.20
2022-09-25T23:04:16.915Z,20.10
2022-09-25T23:06:44.521Z,20.10
2022-09-25T23:09:16.128Z,20.10
2022-09-25T23:11:44.410Z,20.10
2022-09-25T23:14:19.473Z,20.10
2022-09-25T23:16:48.570Z,20.10
2022-09-25T23:19:15.901Z,20.00
2022-09-25T23:21:43.792Z,20.00
2022-09-25T23:24:13.755Z,20.00
2022-09-25T23:26:41.368Z,20.10
2022-09-25T23:29:11.092Z,20.00
2022-09-25T23:31:38.376Z,20.10
2022-09-25T23:34:05.582Z,20.00
2022-09-25T23:36:32.866Z,20.10
2022-09-25T23:39:01.172Z,20.00
2022-09-25T23:41:34.029Z,20.00
2022-09-25T23:44:02.978Z,20.00
2022-09-25T23:46:32.766Z,20.00
2022-09-25T23:49:00.419Z,20.00
2022-09-25T23:51:28.367Z,19.90
2022-09-25T23:53:58.272Z,20.00
2022-09-25T23:56:30.290Z,20.00
2022-09-25T23:58:59.275Z,19.90
